Change the Weather History Date:

Monday, March 18, 2013

  Actual Average (KGHW) Record (KGHW)
Temperature  
Mean Temperature 19 °F -  
Max Temperature 30 °F 38 °F 77 °F (2012)
Min Temperature 8 °F 20 °F -10 °F (1989)
Degree Days  
Heating Degree Days 46    
Moisture  
Dew Point 14 °F    
Average Humidity 84    
Maximum Humidity 100    
Minimum Humidity 73    
Precipitation  
Precipitation 0.00 in - - ()
Sea Level Pressure  
Sea Level Pressure 29.65 in    
Wind  
Wind Speed 21 mph (WSW)    
Max Wind Speed 30 mph    
Max Gust Speed 37 mph    
Visibility 3 miles    
Events Snow    
Averages and records for this station are not official NWS values.
T = Trace of Precipitation, MM = Missing Value Source: NWS Daily Summary

Daily Weather History Graph

Daily Weather History Graph

Search for Another Location

Airport or City:

Trip Planner

Search our weather history database for the weather conditions in past years. The results will help you decide how hot, cold, wet, or windy it might be!

Date:

Astronomy

Mar. 18, 2013 Rise Set
Actual Time 7:26 AM CDT 7:30 PM CDT
Civil Twilight 6:56 AM CDT 7:59 PM CDT
Nautical Twilight 6:21 AM CDT 8:34 PM CDT
Astronomical Twilight 5:46 AM CDT 9:10 PM CDT
Moon 11:09 AM CDT (3/18) 1:47 AM CDT (3/18)
Length of Visible Light 13h 03m
Length of Day
12h 03m
Waxing Crescent, 41% of the Moon is Illuminated
Mar 18
Waxing Crescent
Mar 19
First Quarter
Mar 27
Full
Apr 2
Last Quarter
Apr 10
New

Hourly Weather History & Observations

Time (CDT) Temp. Windchill Dew Point Humidity Pressure Visibility Wind Dir Wind Speed Gust Speed Precip Events Conditions
12:15 AM 23.0 °F 7.6 °F 21.2 °F 93% 29.67 in 0.8 mi ESE 21.9 mph 28.8 mph N/A Snow Snow
12:35 AM 23.0 °F 7.2 °F 21.2 °F 93% 29.65 in 0.8 mi SE 23.0 mph 33.4 mph N/A Snow Snow
12:55 AM 24.8 °F 10.3 °F 23.0 °F 93% 29.65 in 0.8 mi ESE 20.7 mph 27.6 mph N/A Snow Snow
1:15 AM 24.8 °F 10.3 °F 23.0 °F 93% 29.64 in 0.8 mi SE 20.7 mph 28.8 mph N/A Snow Snow
1:35 AM 24.8 °F 11.1 °F 23.0 °F 93% 29.64 in 0.8 mi SE 18.4 mph 26.5 mph N/A Snow Snow
1:55 AM 26.6 °F 13.8 °F 23.0 °F 86% 29.64 in 1.2 mi SE 17.3 mph 23.0 mph N/A Snow Light Snow
2:15 AM 26.6 °F 13.8 °F 23.0 °F 86% 29.64 in 2.0 mi SE 17.3 mph 23.0 mph N/A Snow Light Snow
2:35 AM 26.6 °F 13.4 °F 24.8 °F 93% 29.63 in 1.0 mi SE 18.4 mph 23.0 mph N/A Snow Light Snow
2:55 AM 26.6 °F 13.4 °F 24.8 °F 93% 29.62 in 7.0 mi SE 18.4 mph 21.9 mph N/A Snow Light Snow
3:15 AM 26.6 °F 14.3 °F 24.8 °F 93% 29.60 in 5.0 mi SE 16.1 mph 24.2 mph N/A Snow Light Snow
3:35 AM 26.6 °F 13.4 °F 26.6 °F 100% 29.59 in 5.0 mi SE 18.4 mph 24.2 mph N/A Snow Light Snow
3:55 AM 28.4 °F 15.1 °F 26.6 °F 93% 29.58 in 3.0 mi SE 20.7 mph 26.5 mph N/A Snow Light Snow
4:15 AM 28.4 °F 15.1 °F 26.6 °F 93% 29.56 in 2.5 mi SSE 20.7 mph 27.6 mph N/A Snow Light Snow
4:35 AM 28.4 °F 15.1 °F 26.6 °F 93% 29.55 in 3.0 mi SSE 20.7 mph 29.9 mph N/A Snow Light Snow
4:55 AM 28.4 °F 14.4 °F 26.6 °F 93% 29.53 in 2.0 mi SSE 23.0 mph 28.8 mph N/A Snow Light Snow
5:15 AM 28.4 °F 14.1 °F 28.4 °F 100% 29.52 in 2.5 mi SSE 24.2 mph - N/A Snow Light Snow
5:35 AM 28.4 °F 14.4 °F 28.4 °F 100% 29.52 in 2.0 mi SSE 23.0 mph 28.8 mph N/A Snow Light Snow
5:55 AM 30.2 °F 16.8 °F 28.4 °F 93% 29.51 in 4.0 mi SSE 23.0 mph 29.9 mph N/A Snow Light Snow
6:15 AM 30.2 °F 16.8 °F 30.2 °F 100% 29.51 in 4.0 mi South 23.0 mph 26.5 mph N/A   Overcast
6:35 AM 28.4 °F 13.3 °F 26.6 °F 93% 29.53 in 5.0 mi SW 27.6 mph 33.4 mph N/A   Overcast
6:55 AM 26.6 °F 12.4 °F 23.0 °F 86% 29.53 in 4.0 mi WSW 21.9 mph 28.8 mph N/A Snow Light Snow
7:15 AM 24.8 °F 10.0 °F 21.2 °F 86% 29.53 in 5.0 mi WSW 21.9 mph 34.5 mph N/A   Overcast
7:35 AM 23.0 °F 8.0 °F 21.2 °F 93% 29.55 in 5.0 mi WSW 20.7 mph 27.6 mph N/A   Overcast
7:55 AM 23.0 °F 9.6 °F 19.4 °F 86% 29.55 in 5.0 mi WSW 16.1 mph 25.3 mph N/A   Overcast
8:15 AM 21.2 °F 4.2 °F 17.6 °F 86% 29.56 in 5.0 mi WSW 25.3 mph 31.1 mph N/A   Overcast
8:35 AM 17.6 °F 0.5 °F 14.0 °F 86% 29.55 in 4.0 mi West 21.9 mph 28.8 mph N/A   Overcast
8:55 AM 17.6 °F -1.0 °F 12.2 °F 79% 29.57 in 2.0 mi WSW 26.5 mph 34.5 mph N/A Snow Light Snow
9:15 AM 15.8 °F -1.9 °F 12.2 °F 86% 29.57 in 4.0 mi WSW 21.9 mph 32.2 mph N/A Snow Light Snow
9:35 AM 15.8 °F -3.7 °F 12.2 °F 86% 29.58 in 2.5 mi West 27.6 mph 33.4 mph N/A Snow Light Snow
9:55 AM 14.0 °F -5.1 °F 10.4 °F 86% 29.58 in 2.5 mi West 24.2 mph 35.7 mph N/A Snow Light Snow
10:15 AM 14.0 °F -4.7 °F 10.4 °F 86% 29.59 in 2.0 mi West 23.0 mph 34.5 mph N/A Snow Light Snow
10:35 AM 14.0 °F -5.1 °F 10.4 °F 86% 29.59 in 2.0 mi West 24.2 mph 33.4 mph N/A Snow Light Snow
10:55 AM 14.0 °F -6.8 °F 8.6 °F 79% 29.60 in 2.5 mi West 29.9 mph 36.8 mph N/A Snow Light Snow
11:15 AM 14.0 °F -5.5 °F 8.6 °F 79% 29.61 in 1.8 mi West 25.3 mph 35.7 mph N/A Snow Light Snow
11:35 AM 14.0 °F -6.5 °F 8.6 °F 79% 29.60 in 2.5 mi West 28.8 mph 33.4 mph N/A Snow Light Snow
11:55 AM 14.0 °F -4.7 °F 8.6 °F 79% 29.61 in 2.5 mi West 23.0 mph 35.7 mph N/A Snow Light Snow
12:15 PM 14.0 °F -4.3 °F 8.6 °F 79% 29.61 in 2.0 mi West 21.9 mph 31.1 mph N/A Snow Light Snow
12:35 PM 14.0 °F -4.7 °F 8.6 °F 79% 29.62 in 1.8 mi West 23.0 mph 34.5 mph N/A Snow Light Snow
12:55 PM 14.0 °F -5.8 °F 8.6 °F 79% 29.63 in 2.0 mi West 26.5 mph 32.2 mph N/A Snow Light Snow
1:15 PM 14.0 °F -5.5 °F 8.6 °F 79% 29.63 in 2.5 mi West 25.3 mph 29.9 mph N/A Snow Light Snow
1:35 PM 14.0 °F -4.7 °F 8.6 °F 79% 29.63 in 2.0 mi West 23.0 mph 33.4 mph N/A Snow Light Snow
1:55 PM 15.8 °F -3.7 °F 8.6 °F 73% 29.63 in 2.0 mi West 27.6 mph 33.4 mph N/A Snow Light Snow
2:15 PM 14.0 °F -5.5 °F 8.6 °F 79% 29.63 in 1.8 mi West 25.3 mph 33.4 mph N/A Snow Light Snow
2:35 PM 15.8 °F -2.3 °F 10.4 °F 79% 29.63 in 2.5 mi West 23.0 mph 31.1 mph N/A Snow Light Snow
2:55 PM 14.0 °F -3.9 °F 8.6 °F 79% 29.64 in 1.2 mi West 20.7 mph 33.4 mph N/A   Haze
3:15 PM 15.8 °F -2.7 °F 8.6 °F 73% 29.64 in 1.2 mi West 24.2 mph 31.1 mph N/A   Haze
3:35 PM 15.8 °F -1.1 °F 8.6 °F 73% 29.65 in 1.8 mi WNW 19.6 mph 33.4 mph N/A Snow Light Snow
3:55 PM 15.8 °F -1.9 °F 8.6 °F 73% 29.66 in 2.0 mi West 21.9 mph 33.4 mph N/A   Haze
4:15 PM 15.8 °F -1.1 °F 10.4 °F 79% 29.66 in 2.0 mi West 19.6 mph 28.8 mph N/A   Haze
4:35 PM 15.8 °F -1.5 °F 10.4 °F 79% 29.67 in 2.0 mi West 20.7 mph 29.9 mph N/A Snow Light Snow
4:55 PM 15.8 °F -1.1 °F 10.4 °F 79% 29.68 in 1.8 mi West 19.6 mph 31.1 mph N/A Snow Light Snow
5:15 PM 15.8 °F -2.3 °F 10.4 °F 79% 29.69 in 2.0 mi West 23.0 mph 32.2 mph N/A Snow Light Snow
5:35 PM 14.0 °F -4.3 °F 10.4 °F 86% 29.70 in 1.8 mi WNW 21.9 mph 34.5 mph N/A Snow Light Snow
5:55 PM 14.0 °F -5.1 °F 8.6 °F 79% 29.70 in 1.8 mi WNW 24.2 mph 29.9 mph N/A Snow Light Snow
6:15 PM 14.0 °F -3.4 °F 8.6 °F 79% 29.71 in 3.0 mi WNW 19.6 mph - N/A Snow Light Snow
6:35 PM 14.0 °F -1.4 °F 8.6 °F 79% 29.72 in 4.0 mi WNW 15.0 mph 26.5 mph N/A Snow Light Snow
6:55 PM 12.2 °F -5.8 °F 8.6 °F 85% 29.73 in 3.0 mi WNW 19.6 mph 29.9 mph N/A   Haze
7:35 PM 12.2 °F -3.7 °F 8.6 °F 85% 29.75 in 4.0 mi WNW 15.0 mph 27.6 mph N/A Snow Light Snow
7:55 PM 12.2 °F -5.8 °F 8.6 °F 85% 29.77 in 4.0 mi WNW 19.6 mph 25.3 mph N/A Snow Light Snow
8:15 PM 12.2 °F -6.7 °F 6.8 °F 79% 29.77 in 5.0 mi WNW 21.9 mph 27.6 mph N/A   Haze
8:35 PM 12.2 °F -5.8 °F 6.8 °F 79% 29.78 in 4.0 mi WNW 19.6 mph 32.2 mph N/A   Haze
8:55 PM 10.4 °F -9.1 °F 5.0 °F 79% 29.79 in 5.0 mi WNW 21.9 mph 28.8 mph N/A   Haze
9:15 PM 10.4 °F -8.2 °F 5.0 °F 79% 29.80 in 5.0 mi WNW 19.6 mph 28.8 mph N/A   Haze
9:35 PM 10.4 °F -9.1 °F 5.0 °F 79% 29.81 in 5.0 mi WNW 21.9 mph 26.5 mph N/A   Haze
9:55 PM 10.4 °F -7.7 °F 3.2 °F 73% 29.82 in 7.0 mi WNW 18.4 mph 24.2 mph N/A   Clear
10:15 PM 8.6 °F -9.5 °F 3.2 °F 79% 29.83 in 7.0 mi WNW 17.3 mph 24.2 mph N/A   Clear
10:35 PM 8.6 °F -8.9 °F 3.2 °F 79% 29.83 in 10.0 mi WNW 16.1 mph 23.0 mph N/A   Clear
10:55 PM 8.6 °F -8.3 °F 3.2 °F 79% 29.84 in 10.0 mi WNW 15.0 mph 23.0 mph N/A   Clear
11:15 PM 8.6 °F -10.0 °F 3.2 °F 79% 29.85 in 7.0 mi WNW 18.4 mph 25.3 mph N/A   Mostly Cloudy
11:35 PM 8.6 °F -10.0 °F 3.2 °F 79% 29.85 in 7.0 mi WNW 18.4 mph 24.2 mph N/A   Overcast
11:55 PM 8.6 °F -10.0 °F 3.2 °F 79% 29.85 in 7.0 mi WNW 18.4 mph 25.3 mph N/A   Overcast